Time;durP1;ratioP1;P1;durP2;ratioP2;P2;SDS_P1;SDS_P2;PMS_P1;PMS_P2;Temp;Humidity;BMP_temperature;BMP_pressure;BME280_temperature;BME280_humidity;BME280_pressure;Samples;Min_cycle;Max_cycle;Signal;HPM_P1;HPM_P2
2021/12/25 00:02:07;;;;;;;1.38;0.80;;;-1.10;99.90;;;;;;5003313;28;20050;-73
2021/12/25 00:04:33;;;;;;;2.00;0.75;;;-1.20;99.90;;;;;;5012524;28;20041;-73
2021/12/25 00:06:59;;;;;;;1.90;0.70;;;-0.60;99.90;;;;;;5014662;28;20041;-74
2021/12/25 00:09:25;;;;;;;2.40;0.70;;;-1.20;99.90;;;;;;5021840;28;20048;-73
2021/12/25 00:11:51;;;;;;;2.08;0.70;;;-1.30;99.90;;;;;;5011689;28;20029;-73
2021/12/25 00:14:17;;;;;;;1.08;0.70;;;-1.40;99.90;;;;;;5011373;28;20084;-74
2021/12/25 00:16:43;;;;;;;3.42;1.15;;;-1.40;99.90;;;;;;5012522;28;20109;-73
2021/12/25 00:19:09;;;;;;;2.45;0.80;;;-1.40;99.90;;;;;;5017522;28;20132;-72
2021/12/25 00:21:35;;;;;;;3.95;0.88;;;-1.40;99.90;;;;;;5030494;28;20124;-73
2021/12/25 00:24:01;;;;;;;2.50;0.90;;;-1.50;99.90;;;;;;4994157;28;20047;-74
2021/12/25 00:32:14;;;;;;;2.50;0.93;;;-1.50;99.90;;;;;;5011106;28;20060;-73
2021/12/25 00:34:40;;;;;;;1.55;0.75;;;-1.50;99.90;;;;;;5013005;28;20124;-74
2021/12/25 00:37:08;;;;;;;2.85;1.20;;;-1.60;99.90;;;;;;5012765;28;20057;-73
2021/12/25 00:39:34;;;;;;;3.33;0.90;;;-1.60;99.90;;;;;;4994566;28;20050;-73
2021/12/25 00:42:01;;;;;;;3.10;1.35;;;-1.60;99.90;;;;;;4994222;28;20040;-73
2021/12/25 00:44:28;;;;;;;6.13;1.13;;;-1.60;99.90;;;;;;4998509;28;20069;-73
2021/12/25 00:46:55;;;;;;;2.88;0.80;;;-1.70;99.90;;;;;;5012251;28;20037;-73
2021/12/25 00:49:21;;;;;;;1.30;0.90;;;-1.70;99.90;;;;;;5012309;28;20048;-73
2021/12/25 00:51:47;;;;;;;1.55;0.85;;;-1.80;99.90;;;;;;5014679;28;20033;-75
2021/12/25 00:54:15;;;;;;;2.25;0.60;;;-1.80;99.90;;;;;;5012618;28;20091;-73
2021/12/25 00:56:40;;;;;;;3.47;0.77;;;-1.90;99.90;;;;;;5014597;28;20049;-74
2021/12/25 00:59:06;;;;;;;1.40;0.80;;;-1.70;99.90;;;;;;4998920;28;20041;-72
2021/12/25 01:01:32;;;;;;;4.75;0.70;;;-2.00;99.90;;;;;;4998711;28;20072;-73
2021/12/25 01:03:58;;;;;;;1.38;0.88;;;-2.00;99.90;;;;;;5016104;28;20033;-74
2021/12/25 01:06:24;;;;;;;1.92;0.88;;;-2.00;99.90;;;;;;4997291;28;20477;-73
2021/12/25 01:08:49;;;;;;;2.40;0.60;;;-1.20;99.90;;;;;;5018733;28;20072;-72
2021/12/25 01:11:15;;;;;;;2.03;0.70;;;-2.00;99.90;;;;;;5014477;28;20417;-73
2021/12/25 01:13:54;;;;;;;4.13;1.05;;;-2.10;99.90;;;;;;5017556;28;20575;-72
2021/12/25 01:17:02;;;;;;;1.00;0.70;;;-2.10;99.90;;;;;;4985783;28;20088;-72
2021/12/25 01:19:38;;;;;;;3.33;0.70;;;-2.10;99.90;;;;;;5019947;28;20051;-73
2021/12/25 01:29:54;;;;;;;2.42;0.70;;;-2.20;99.90;;;;;;5014012;28;20547;-72
2021/12/25 01:48:25;;;;;;;0.57;0.47;;;-2.40;99.90;;;;;;5013215;28;20551;-71
2021/12/25 01:50:51;;;;;;;2.63;0.73;;;-2.40;99.90;;;;;;5014023;28;20497;-72
2021/12/25 01:53:17;;;;;;;1.90;0.90;;;-1.60;99.90;;;;;;5013447;28;20037;-71
2021/12/25 01:55:43;;;;;;;3.40;0.70;;;-2.50;99.90;;;;;;5014237;28;20559;-71
2021/12/25 01:58:09;;;;;;;1.98;0.73;;;-2.50;99.90;;;;;;5014780;28;20076;-70
2021/12/25 02:00:42;;;;;;;3.83;0.75;;;-2.50;99.90;;;;;;5013097;28;20049;-71
2021/12/25 02:03:10;;;;;;;0.95;0.68;;;-2.50;99.90;;;;;;5012060;28;20045;-72
2021/12/25 02:05:36;;;;;;;1.92;0.77;;;-2.50;99.90;;;;;;5017427;28;20062;-71
2021/12/25 02:08:02;;;;;;;2.15;0.70;;;-2.50;99.90;;;;;;5024409;28;20026;-71
2021/12/25 02:10:28;;;;;;;0.77;0.45;;;-2.60;99.90;;;;;;5014995;28;20045;-73
2021/12/25 02:12:54;;;;;;;0.77;0.40;;;-2.60;99.90;;;;;;5002230;28;20038;-72
2021/12/25 02:15:23;;;;;;;0.40;0.40;;;-2.60;99.90;;;;;;4997655;28;20041;-72
2021/12/25 02:20:28;;;;;;;2.90;0.38;;;-2.60;99.90;;;;;;4999956;28;20057;-72
2021/12/25 02:23:00;;;;;;;0.40;0.40;;;-2.60;99.90;;;;;;5015087;28;20115;-71
2021/12/25 02:25:28;;;;;;;1.08;0.47;;;-2.60;99.90;;;;;;5012250;28;20041;-71
2021/12/25 02:27:54;;;;;;;0.98;0.50;;;-2.70;99.90;;;;;;5013474;28;20112;-71
2021/12/25 02:30:20;;;;;;;2.97;0.80;;;-2.70;99.90;;;;;;5017703;28;20119;-72
2021/12/25 02:32:46;;;;;;;1.67;0.55;;;-2.70;99.90;;;;;;5014715;28;20033;-73
2021/12/25 02:35:14;;;;;;;0.82;0.63;;;-2.70;99.90;;;;;;5001445;28;20060;-71
2021/12/25 02:37:44;;;;;;;2.42;1.05;;;-2.70;99.90;;;;;;5013978;28;20053;-73
2021/12/25 02:40:12;;;;;;;0.85;0.77;;;-2.70;99.90;;;;;;5018536;28;20093;-72
2021/12/25 02:42:39;;;;;;;2.80;0.70;;;-2.80;99.90;;;;;;4996090;28;20132;-73
2021/12/25 02:45:06;;;;;;;1.92;0.40;;;-2.80;99.90;;;;;;4997298;28;20442;-72
2021/12/25 02:47:32;;;;;;;1.25;0.40;;;-2.80;99.90;;;;;;5012564;28;20116;-71
2021/12/25 02:49:58;;;;;;;0.98;0.45;;;-2.90;99.90;;;;;;5010809;28;20500;-71
2021/12/25 02:52:24;;;;;;;0.98;0.60;;;-2.80;99.90;;;;;;4995818;28;20129;-72
2021/12/25 02:54:50;;;;;;;1.38;0.60;;;-2.90;99.90;;;;;;5028413;28;20041;-72
2021/12/25 02:57:16;;;;;;;0.70;0.57;;;-2.90;99.90;;;;;;4996012;28;20052;-71
2021/12/25 02:59:43;;;;;;;0.50;0.47;;;-2.90;99.90;;;;;;5012692;28;20084;-71
2021/12/25 03:02:10;;;;;;;0.47;0.40;;;-2.90;99.90;;;;;;5013949;28;20056;-71
2021/12/25 03:04:41;;;;;;;0.68;0.68;;;-3.00;99.90;;;;;;5012124;28;20041;-71
2021/12/25 03:07:08;;;;;;;3.03;0.93;;;-3.00;99.90;;;;;;5012687;28;20049;-71
2021/12/25 03:09:33;;;;;;;0.50;0.50;;;-2.90;99.90;;;;;;5011808;28;20041;-71
2021/12/25 03:11:59;;;;;;;2.55;0.70;;;-3.00;99.90;;;;;;5011455;28;20220;-72
2021/12/25 03:14:36;;;;;;;0.43;0.32;;;-3.00;99.90;;;;;;4995189;28;20124;-73
2021/12/25 03:17:02;;;;;;;0.65;0.38;;;-3.10;99.90;;;;;;5013314;28;20049;-71
2021/12/25 03:19:32;;;;;;;0.25;0.20;;;-3.10;99.90;;;;;;5011966;28;20183;-70
2021/12/25 03:22:02;;;;;;;1.85;0.43;;;-3.10;99.90;;;;;;5015912;28;20048;-72
2021/12/25 03:24:28;;;;;;;5.93;0.52;;;-3.10;99.90;;;;;;5011777;28;20492;-70
2021/12/25 03:26:56;;;;;;;0.90;0.52;;;-2.00;99.90;;;;;;5013152;28;20045;-72
2021/12/25 03:29:24;;;;;;;2.15;0.70;;;-3.10;99.90;;;;;;5008096;28;20041;-72
2021/12/25 03:31:51;;;;;;;2.20;0.70;;;-2.20;99.90;;;;;;4995067;28;20049;-73
2021/12/25 03:34:18;;;;;;;1.20;0.80;;;-3.20;99.90;;;;;;4995249;28;20042;-69
2021/12/25 03:36:44;;;;;;;1.80;0.57;;;-3.20;99.90;;;;;;5020923;28;20473;-73
2021/12/25 03:39:10;;;;;;;0.40;0.40;;;-2.90;99.90;;;;;;5000334;28;20076;-73
2021/12/25 03:41:36;;;;;;;0.80;0.60;;;-3.20;99.90;;;;;;5000424;28;20103;-70
2021/12/25 03:44:03;;;;;;;1.10;0.65;;;-3.20;99.90;;;;;;5011911;28;20045;-73
2021/12/25 03:46:29;;;;;;;1.77;0.60;;;-3.20;99.90;;;;;;4996039;28;20037;-72
2021/12/25 03:59:36;;;;;;;1.02;0.32;;;-3.40;99.90;;;;;;5011852;28;20469;-71
2021/12/25 04:02:08;;;;;;;0.80;0.40;;;-3.10;99.90;;;;;;5012091;28;20080;-72
2021/12/25 04:04:37;;;;;;;0.40;0.40;;;-3.40;99.90;;;;;;5011108;28;20052;-72
2021/12/25 04:09:34;;;;;;;0.63;0.50;;;-3.50;99.90;;;;;;5011188;28;20041;-72
2021/12/25 04:12:06;;;;;;;0.85;0.50;;;-3.50;99.90;;;;;;5011207;28;20075;-72
2021/12/25 04:14:31;;;;;;;0.82;0.50;;;-3.50;99.90;;;;;;5011543;28;20045;-72
2021/12/25 04:16:57;;;;;;;1.90;0.60;;;-3.50;99.90;;;;;;5011476;28;20531;-71
2021/12/25 04:19:23;;;;;;;0.75;0.40;;;-3.60;99.90;;;;;;5010895;28;20046;-71
2021/12/25 04:22:03;;;;;;;4.50;0.90;;;-3.50;99.90;;;;;;5011305;28;20045;-71
2021/12/25 04:24:32;;;;;;;1.02;0.50;;;-3.60;99.90;;;;;;5021735;28;20050;-72
2021/12/25 04:26:58;;;;;;;1.33;0.40;;;-3.50;99.90;;;;;;4999305;28;20129;-73
2021/12/25 04:47:51;;;;;;;0.38;0.35;;;-3.70;99.90;;;;;;4992893;28;20517;-72
2021/12/25 05:02:10;;;;;;;2.72;0.60;;;-3.70;99.90;;;;;;5029479;28;20045;-72
2021/12/25 05:04:50;;;;;;;0.52;0.50;;;-1.90;99.90;;;;;;5014199;28;20045;-73
2021/12/25 05:07:16;;;;;;;0.28;0.28;;;-3.30;99.90;;;;;;5017092;28;20050;-72
2021/12/25 05:09:41;;;;;;;2.97;0.75;;;-3.00;99.90;;;;;;5014544;28;20118;-73
2021/12/25 05:12:07;;;;;;;0.63;0.45;;;-3.80;99.90;;;;;;5016811;28;20037;-72
2021/12/25 05:14:33;;;;;;;8.07;0.70;;;-3.80;99.90;;;;;;5015436;28;20048;-73
2021/12/25 05:16:59;;;;;;;2.25;1.15;;;-3.70;99.90;;;;;;5014564;28;20493;-73
2021/12/25 05:19:25;;;;;;;0.77;0.40;;;-3.80;99.90;;;;;;5013873;28;20045;-72
2021/12/25 05:21:51;;;;;;;1.33;0.50;;;-3.70;99.90;;;;;;5015446;28;20048;-73
2021/12/25 05:24:17;;;;;;;1.02;0.52;;;-3.70;99.90;;;;;;5015130;28;20120;-73
2021/12/25 05:26:43;;;;;;;0.60;0.60;;;-3.80;99.90;;;;;;5013592;28;20191;-73
2021/12/25 05:29:08;;;;;;;2.85;0.75;;;-3.70;99.90;;;;;;4998425;28;20109;-73
2021/12/25 05:31:36;;;;;;;0.90;0.50;;;-3.70;99.90;;;;;;5014165;28;20045;-73
2021/12/25 05:34:02;;;;;;;1.67;0.43;;;-3.70;99.90;;;;;;5013848;28;20048;-73
2021/12/25 05:36:29;;;;;;;0.98;0.50;;;-3.70;99.90;;;;;;5014406;28;20038;-74
2021/12/25 05:38:57;;;;;;;0.30;0.30;;;-3.70;99.90;;;;;;4982261;28;20058;-74
2021/12/25 05:41:24;;;;;;;0.47;0.47;;;-3.70;99.90;;;;;;5013987;28;20052;-73
2021/12/25 05:43:50;;;;;;;1.38;0.60;;;-3.70;99.90;;;;;;5014651;28;20048;-73
2021/12/25 05:46:16;;;;;;;0.95;0.68;;;-3.70;99.90;;;;;;4998264;28;20038;-73
2021/12/25 05:48:41;;;;;;;0.38;0.38;;;-3.70;99.90;;;;;;5013325;28;20038;-74
2021/12/25 05:51:07;;;;;;;2.67;0.60;;;-3.70;99.90;;;;;;5014187;28;20029;-74
2021/12/25 05:53:33;;;;;;;0.55;0.50;;;-3.70;99.90;;;;;;5030101;28;20485;-74
2021/12/25 05:55:59;;;;;;;1.38;0.73;;;-3.70;99.90;;;;;;5001466;28;20065;-73
2021/12/25 05:58:25;;;;;;;1.85;0.50;;;-3.70;99.90;;;;;;5012436;28;20051;-73
2021/12/25 06:00:50;;;;;;;2.10;0.65;;;-3.70;99.90;;;;;;5012569;28;20084;-74
2021/12/25 06:03:17;;;;;;;1.67;0.73;;;-2.90;99.90;;;;;;5030542;28;20051;-73
2021/12/25 06:05:43;;;;;;;0.85;0.55;;;-3.70;99.90;;;;;;5013330;28;20038;-74
2021/12/25 06:08:08;;;;;;;0.65;0.40;;;-3.70;99.90;;;;;;4997253;28;20038;-73
2021/12/25 06:10:34;;;;;;;0.85;0.50;;;-3.60;99.90;;;;;;5013755;28;20029;-74
2021/12/25 06:13:01;;;;;;;2.17;0.57;;;-3.60;99.90;;;;;;4997785;28;20029;-74
2021/12/25 06:15:28;;;;;;;3.33;0.70;;;-3.60;99.90;;;;;;5013802;28;20112;-74
2021/12/25 06:17:55;;;;;;;1.02;0.80;;;-3.70;99.90;;;;;;4997841;28;20037;-73
2021/12/25 06:20:21;;;;;;;1.60;0.60;;;-3.60;99.90;;;;;;5013635;28;20049;-73
2021/12/25 06:22:46;;;;;;;2.20;0.50;;;-3.20;99.90;;;;;;5013244;28;20076;-74
2021/12/25 06:25:12;;;;;;;6.18;0.60;;;-3.60;99.90;;;;;;5013438;28;20044;-74
2021/12/25 06:27:38;;;;;;;0.88;0.60;;;-3.60;99.90;;;;;;4999353;28;20650;-74
2021/12/25 06:30:06;;;;;;;0.73;0.60;;;-3.60;99.90;;;;;;5014782;28;20072;-74
2021/12/25 06:32:32;;;;;;;1.83;0.50;;;-3.60;99.90;;;;;;5012571;28;20075;-74
2021/12/25 06:34:58;;;;;;;2.50;0.70;;;-2.90;99.90;;;;;;5030984;28;20037;-74
2021/12/25 06:37:24;;;;;;;1.05;0.68;;;-3.70;99.90;;;;;;4986906;28;20045;-74
2021/12/25 06:39:50;;;;;;;0.88;0.85;;;-3.70;99.90;;;;;;5012019;28;20515;-73
2021/12/25 06:42:16;;;;;;;0.60;0.40;;;-3.70;99.90;;;;;;5012633;28;20445;-74
2021/12/25 06:44:42;;;;;;;10.80;1.27;;;-3.70;99.90;;;;;;5029499;28;20041;-74
2021/12/25 06:47:08;;;;;;;1.42;1.00;;;-3.30;99.90;;;;;;5012502;28;20377;-75
2021/12/25 06:49:34;;;;;;;2.63;0.63;;;-3.80;99.90;;;;;;5012784;28;20117;-74
2021/12/25 06:52:00;;;;;;;0.95;0.60;;;-3.80;99.90;;;;;;5012544;28;20124;-75
2021/12/25 06:54:25;;;;;;;0.85;0.70;;;-3.90;99.90;;;;;;5013121;28;20037;-73
2021/12/25 06:56:51;;;;;;;2.05;0.93;;;-3.60;99.90;;;;;;5017909;28;20132;-75
2021/12/25 06:59:17;;;;;;;2.88;1.30;;;-4.00;99.90;;;;;;5012313;28;20554;-73
2021/12/25 07:01:43;;;;;;;1.08;0.65;;;-4.00;99.90;;;;;;5012640;28;20072;-74
2021/12/25 07:04:09;;;;;;;2.78;0.70;;;-4.00;99.90;;;;;;4994831;28;20065;-73
2021/12/25 07:06:36;;;;;;;1.55;0.32;;;-4.10;99.90;;;;;;4996022;28;20123;-74
2021/12/25 07:09:03;;;;;;;0.80;0.68;;;-3.90;99.90;;;;;;5013352;28;20069;-73
2021/12/25 07:11:29;;;;;;;0.60;0.52;;;-4.10;99.90;;;;;;5012084;28;20052;-74
2021/12/25 07:13:56;;;;;;;0.68;0.50;;;-4.20;99.90;;;;;;4980065;28;20433;-74
2021/12/25 07:16:21;;;;;;;1.63;0.60;;;-4.20;99.90;;;;;;4981679;28;20041;-74
2021/12/25 07:18:47;;;;;;;0.60;0.57;;;-4.20;99.90;;;;;;5013924;28;20037;-74
2021/12/25 07:21:13;;;;;;;2.25;0.70;;;-3.50;99.90;;;;;;4996435;28;20048;-73
2021/12/25 07:23:39;;;;;;;0.55;0.52;;;-4.20;99.90;;;;;;5028247;28;20053;-74
2021/12/25 07:26:05;;;;;;;2.15;1.40;;;-2.20;99.90;;;;;;5010942;28;20049;-74
2021/12/25 07:28:31;;;;;;;4.25;1.02;;;-4.20;99.90;;;;;;5012275;28;20045;-75
2021/12/25 07:31:00;;;;;;;0.38;0.38;;;-4.30;99.90;;;;;;4980682;28;20572;-75
2021/12/25 07:33:26;;;;;;;3.25;1.40;;;-4.30;99.90;;;;;;5009697;28;20049;-74
2021/12/25 07:35:53;;;;;;;3.28;1.75;;;-3.10;99.90;;;;;;4996458;28;20037;-74
2021/12/25 07:38:20;;;;;;;2.80;1.42;;;-4.40;99.90;;;;;;5012454;28;20104;-74
2021/12/25 07:40:47;;;;;;;2.05;1.20;;;-4.40;99.90;;;;;;5012534;28;20041;-74
2021/12/25 07:43:13;;;;;;;2.95;1.10;;;-4.40;99.90;;;;;;5014706;28;20124;-73
2021/12/25 07:45:39;;;;;;;3.50;1.02;;;-2.80;99.90;;;;;;5018346;28;20080;-74
2021/12/25 07:48:05;;;;;;;1.65;0.80;;;-4.40;99.90;;;;;;5029821;28;20041;-74
2021/12/25 07:50:34;;;;;;;1.98;0.88;;;-4.40;99.90;;;;;;4996684;28;20090;-74
2021/12/25 07:53:00;;;;;;;3.83;0.93;;;-3.40;99.90;;;;;;5012882;28;20037;-73
2021/12/25 07:55:30;;;;;;;3.50;0.82;;;-4.40;99.90;;;;;;4998325;28;20042;-74
2021/12/25 07:57:56;;;;;;;3.25;1.17;;;-4.40;99.90;;;;;;5000091;28;20071;-74
2021/12/25 08:00:22;;;;;;;3.33;0.95;;;-4.50;99.90;;;;;;5018063;28;20179;-73
2021/12/25 08:02:48;;;;;;;1.40;0.90;;;-4.40;99.90;;;;;;5024530;28;20037;-73
2021/12/25 08:05:14;;;;;;;2.08;0.98;;;-3.00;99.90;;;;;;5024930;28;20064;-73
2021/12/25 08:07:41;;;;;;;4.10;1.15;;;-4.00;99.90;;;;;;5013304;28;20033;-73
2021/12/25 08:10:13;;;;;;;4.00;0.90;;;-4.20;99.90;;;;;;5013413;28;20092;-73
2021/12/25 08:12:51;;;;;;;1.52;0.50;;;-4.50;99.90;;;;;;5009399;28;20640;-73
2021/12/25 08:15:20;;;;;;;1.20;0.70;;;-4.50;99.90;;;;;;5034023;28;20166;-74
2021/12/25 08:17:46;;;;;;;0.85;0.60;;;-4.50;99.90;;;;;;4995780;28;20111;-73
2021/12/25 08:20:16;;;;;;;0.77;0.65;;;-4.50;99.90;;;;;;5013974;28;20038;-74
2021/12/25 08:22:42;;;;;;;0.88;0.63;;;-4.50;99.90;;;;;;5011114;28;20049;-73
2021/12/25 08:25:09;;;;;;;1.10;0.65;;;-4.50;99.90;;;;;;5011275;28;20056;-73
2021/12/25 08:27:36;;;;;;;2.05;0.90;;;-4.40;99.90;;;;;;4982799;28;20045;-74
2021/12/25 08:30:05;;;;;;;0.77;0.65;;;-4.50;99.90;;;;;;5011695;28;20042;-73
2021/12/25 08:32:30;;;;;;;1.10;0.80;;;-4.50;99.90;;;;;;5010826;28;20046;-73
2021/12/25 08:34:56;;;;;;;0.98;0.80;;;-4.40;99.90;;;;;;5010617;28;20091;-73
2021/12/25 08:37:24;;;;;;;1.50;0.65;;;-4.40;99.90;;;;;;5013714;28;20045;-73
2021/12/25 08:39:51;;;;;;;1.48;0.77;;;-4.30;99.90;;;;;;5027294;28;20111;-73
2021/12/25 08:42:17;;;;;;;1.48;0.80;;;-4.30;99.90;;;;;;5026324;28;20060;-73
2021/12/25 08:47:26;;;;;;;1.17;0.68;;;-4.30;99.90;;;;;;5011905;28;20362;-73
2021/12/25 08:49:52;;;;;;;1.33;0.55;;;-4.20;99.90;;;;;;5024233;28;20444;-74
2021/12/25 08:52:20;;;;;;;1.98;0.55;;;-4.20;99.90;;;;;;5025009;28;20100;-73
2021/12/25 08:54:48;;;;;;;2.72;0.73;;;-4.20;99.90;;;;;;5002664;28;20041;-73
2021/12/25 08:57:19;;;;;;;0.82;0.40;;;-3.70;99.90;;;;;;5000275;28;20055;-74
2021/12/25 08:59:46;;;;;;;1.80;1.08;;;-4.20;99.90;;;;;;4994375;28;20068;-73
2021/12/25 09:02:14;;;;;;;2.75;0.60;;;-4.20;99.90;;;;;;5013105;28;20060;-74
2021/12/25 09:04:41;;;;;;;1.85;0.80;;;-4.10;99.90;;;;;;5008944;28;20049;-75
2021/12/25 09:07:07;;;;;;;1.67;0.75;;;-4.10;99.90;;;;;;5011364;28;20048;-73
2021/12/25 09:09:34;;;;;;;1.50;0.70;;;-4.10;99.90;;;;;;4995621;28;20037;-74
2021/12/25 09:12:00;;;;;;;1.13;0.70;;;-4.00;99.90;;;;;;5013481;28;20041;-72
2021/12/25 09:14:26;;;;;;;2.00;0.40;;;-4.00;99.90;;;;;;5030834;28;20045;-73
2021/12/25 09:16:52;;;;;;;1.40;0.77;;;-3.90;99.90;;;;;;5013848;28;20115;-72
2021/12/25 09:19:18;;;;;;;1.27;0.57;;;-3.90;99.90;;;;;;5021704;28;20044;-72
2021/12/25 09:21:44;;;;;;;2.65;0.73;;;-3.80;99.90;;;;;;5013017;28;20067;-72
2021/12/25 09:24:10;;;;;;;1.08;0.88;;;-3.40;99.90;;;;;;4998163;28;20045;-72
2021/12/25 09:26:36;;;;;;;1.90;0.55;;;-3.60;99.90;;;;;;4997369;28;20625;-73
2021/12/25 09:29:02;;;;;;;2.28;0.77;;;-3.00;99.90;;;;;;4996445;28;20116;-73
2021/12/25 09:31:28;;;;;;;1.13;0.88;;;-2.50;99.90;;;;;;5012617;28;20057;-76
2021/12/25 09:33:54;;;;;;;1.88;0.70;;;-2.20;99.90;;;;;;5013470;28;20100;-73
2021/12/25 09:36:20;;;;;;;0.52;0.52;;;-1.80;99.90;;;;;;5013534;28;20098;-73
2021/12/25 09:38:47;;;;;;;1.35;0.65;;;-1.60;99.90;;;;;;4996922;28;20084;-72
2021/12/25 09:41:13;;;;;;;1.27;1.10;;;-1.40;99.90;;;;;;4980526;28;20059;-74
2021/12/25 09:43:40;;;;;;;0.50;0.50;;;-1.50;99.90;;;;;;5004447;28;20037;-74
2021/12/25 09:46:07;;;;;;;1.38;0.65;;;-1.20;99.90;;;;;;5008309;28;20080;-73
2021/12/25 09:48:33;;;;;;;1.42;0.60;;;-1.20;99.90;;;;;;5010200;28;20044;-71
2021/12/25 09:51:00;;;;;;;7.32;1.00;;;-1.20;99.90;;;;;;4993041;28;20034;-72
2021/12/25 09:53:28;;;;;;;1.20;0.70;;;-0.90;99.90;;;;;;5023594;28;20152;-73
2021/12/25 09:55:54;;;;;;;1.20;0.70;;;0.10;99.90;;;;;;5007172;28;20405;-73
2021/12/25 09:58:20;;;;;;;6.22;1.35;;;-0.10;99.90;;;;;;4990098;28;20120;-74
2021/12/25 10:00:48;;;;;;;3.58;1.08;;;-0.40;99.90;;;;;;5016132;28;20186;-72
2021/12/25 10:03:14;;;;;;;0.98;0.70;;;-0.30;99.90;;;;;;5007362;28;20107;-71
2021/12/25 10:05:43;;;;;;;1.08;0.82;;;-0.30;99.90;;;;;;5006623;28;20034;-72
2021/12/25 10:08:15;;;;;;;1.38;0.82;;;-0.40;99.90;;;;;;4989962;28;20602;-73
2021/12/25 10:10:51;;;;;;;3.28;1.02;;;-0.10;99.90;;;;;;5013618;28;20049;-71
2021/12/25 10:13:21;;;;;;;2.75;0.80;;;0.00;99.90;;;;;;5008788;28;20048;-72
2021/12/25 10:15:48;;;;;;;2.92;1.05;;;-0.50;99.90;;;;;;5007114;28;20124;-73
2021/12/25 10:18:14;;;;;;;1.25;0.73;;;-0.40;99.90;;;;;;5008617;28;20501;-73
2021/12/25 10:20:40;;;;;;;2.63;0.90;;;-0.50;99.90;;;;;;5006604;28;20041;-74
2021/12/25 10:23:14;;;;;;;1.40;0.90;;;-0.60;99.90;;;;;;4990053;28;20049;-74
2021/12/25 10:25:56;;;;;;;2.03;0.93;;;-0.70;99.90;;;;;;5006267;28;20047;-72
2021/12/25 10:28:34;;;;;;;2.22;0.85;;;-1.30;99.90;;;;;;4989575;28;20033;-72
2021/12/25 10:31:16;;;;;;;1.25;0.60;;;-1.70;99.90;;;;;;5017200;28;20044;-72
2021/12/25 10:33:52;;;;;;;2.00;0.88;;;-1.80;99.90;;;;;;5027434;28;20048;-72
2021/12/25 10:36:31;;;;;;;1.85;0.60;;;-2.00;99.90;;;;;;5012052;28;20377;-71
2021/12/25 10:39:07;;;;;;;1.10;0.50;;;-2.00;99.90;;;;;;5014409;28;20064;-73
2021/12/25 10:41:36;;;;;;;0.82;0.40;;;-1.90;99.90;;;;;;5035842;28;20440;-71
2021/12/25 10:44:21;;;;;;;3.08;0.90;;;-1.50;99.90;;;;;;5010067;28;20056;-72
2021/12/25 10:47:06;;;;;;;1.10;0.77;;;-1.40;99.90;;;;;;5026151;28;20049;-72
2021/12/25 10:49:38;;;;;;;2.05;0.70;;;-0.80;99.90;;;;;;5010588;28;20036;-72
2021/12/25 10:52:12;;;;;;;3.47;1.00;;;-0.80;99.90;;;;;;4999765;28;20042;-73
2021/12/25 10:54:47;;;;;;;2.05;0.98;;;-0.60;99.90;;;;;;5004863;28;20049;-73
2021/12/25 10:57:42;;;;;;;2.42;1.10;;;-0.30;99.90;;;;;;5005477;28;20041;-75
2021/12/25 11:00:08;;;;;;;2.80;1.25;;;-0.20;99.90;;;;;;5000874;28;20099;-73
2021/12/25 11:02:37;;;;;;;2.17;0.95;;;0.30;99.90;;;;;;5003546;28;20061;-73
2021/12/25 11:05:25;;;;;;;3.33;1.25;;;-0.10;99.90;;;;;;5004439;28;20047;-75
2021/12/25 11:08:07;;;;;;;1.85;0.95;;;-0.20;99.90;;;;;;4988349;28;20037;-74
2021/12/25 11:10:44;;;;;;;0.88;0.75;;;0.50;99.90;;;;;;5002811;28;20037;-73
2021/12/25 11:13:31;;;;;;;1.77;0.95;;;-0.40;99.90;;;;;;5003753;28;20760;-75
2021/12/25 11:16:05;;;;;;;1.98;0.98;;;-0.40;99.90;;;;;;5005900;28;20045;-72
2021/12/25 11:18:47;;;;;;;1.60;0.90;;;-0.30;99.90;;;;;;5005762;28;20414;-74
2021/12/25 11:21:13;;;;;;;1.60;1.05;;;0.10;99.90;;;;;;5005617;28;20037;-72
2021/12/25 11:23:39;;;;;;;1.65;0.77;;;0.10;99.90;;;;;;4989205;28;20755;-72
2021/12/25 11:26:04;;;;;;;2.08;0.95;;;0.20;99.90;;;;;;5019122;28;20053;-73
2021/12/25 11:28:31;;;;;;;1.20;0.90;;;0.20;99.90;;;;;;4991568;28;20064;-73
2021/12/25 11:30:56;;;;;;;2.13;0.80;;;0.40;99.90;;;;;;5005852;28;20663;-74
2021/12/25 11:33:22;;;;;;;6.53;1.13;;;0.20;99.90;;;;;;4971826;28;20081;-73
2021/12/25 11:35:48;;;;;;;3.25;1.10;;;-0.10;99.90;;;;;;4990642;28;20041;-73
2021/12/25 11:38:13;;;;;;;1.73;1.00;;;-0.50;99.90;;;;;;5005007;28;20036;-73
2021/12/25 11:40:48;;;;;;;3.30;1.25;;;-0.70;99.90;;;;;;5005310;28;20077;-74
2021/12/25 11:43:14;;;;;;;2.25;1.02;;;-0.50;99.90;;;;;;5012045;28;20753;-73
2021/12/25 11:45:42;;;;;;;2.45;0.88;;;0.30;99.90;;;;;;5025173;28;20253;-73
2021/12/25 11:48:17;;;;;;;2.60;1.00;;;0.40;99.90;;;;;;4996731;28;20796;-74
2021/12/25 11:50:46;;;;;;;1.75;1.02;;;0.40;99.90;;;;;;5008509;28;20034;-74
2021/12/25 11:53:24;;;;;;;2.67;1.23;;;0.90;99.90;;;;;;5000995;28;20071;-74
2021/12/25 11:58:44;;;;;;;4.47;1.33;;;-0.10;99.90;;;;;;5005012;28;20045;-74
2021/12/25 12:01:28;;;;;;;2.00;0.95;;;0.10;99.90;;;;;;4988701;28;20671;-73
2021/12/25 12:04:21;;;;;;;2.93;0.90;;;0.40;99.90;;;;;;5004231;28;20103;-73
2021/12/25 12:06:47;;;;;;;1.90;1.02;;;0.20;99.90;;;;;;4985510;28;20050;-73
2021/12/25 12:09:29;;;;;;;2.50;1.08;;;0.50;99.90;;;;;;5003657;28;20045;-74
2021/12/25 12:12:06;;;;;;;1.13;0.70;;;-0.40;99.90;;;;;;5003993;28;20364;-74
2021/12/25 12:14:32;;;;;;;3.55;0.90;;;-0.40;99.90;;;;;;5010819;28;20123;-73
2021/12/25 12:17:18;;;;;;;4.60;1.05;;;-0.50;99.90;;;;;;5024900;28;20155;-74
2021/12/25 12:19:46;;;;;;;2.40;0.95;;;-0.40;99.90;;;;;;4985561;28;20557;-73
2021/12/25 12:27:46;;;;;;;1.33;0.80;;;-0.90;99.90;;;;;;5015719;28;20056;-73
2021/12/25 12:30:34;;;;;;;2.08;1.20;;;-1.10;99.90;;;;;;5004357;28;20045;-74
2021/12/25 12:33:02;;;;;;;3.10;1.20;;;-1.10;99.90;;;;;;5003590;28;20100;-72
2021/12/25 12:35:32;;;;;;;1.60;0.98;;;-0.50;99.90;;;;;;5004512;28;20091;-72
2021/12/25 12:38:36;;;;;;;0.73;0.55;;;-1.30;99.90;;;;;;5004972;28;20095;-73
2021/12/25 12:41:39;;;;;;;2.45;0.98;;;-1.30;99.90;;;;;;5004599;28;20123;-73
2021/12/25 12:44:23;;;;;;;2.83;1.17;;;-1.30;99.90;;;;;;5017808;28;20057;-74
2021/12/25 12:46:53;;;;;;;3.75;1.10;;;-1.30;99.90;;;;;;5009264;28;20163;-74
2021/12/25 12:49:23;;;;;;;3.03;1.30;;;-1.30;99.90;;;;;;5010617;28;20080;-73
2021/12/25 12:52:18;;;;;;;4.50;1.25;;;-1.30;99.90;;;;;;5015365;28;20037;-74
2021/12/25 12:54:53;;;;;;;2.10;1.35;;;-1.30;99.90;;;;;;5008961;28;20414;-74
2021/12/25 12:57:36;;;;;;;5.65;1.85;;;-1.30;99.90;;;;;;5006227;28;20045;-73
2021/12/25 13:00:14;;;;;;;2.92;1.75;;;-1.30;99.90;;;;;;4992192;28;20067;-74
2021/12/25 13:02:44;;;;;;;3.10;1.35;;;-1.30;99.90;;;;;;5009650;28;20041;-74
2021/12/25 13:05:10;;;;;;;3.72;1.27;;;-0.50;99.90;;;;;;5024603;28;20585;-74
2021/12/25 13:07:40;;;;;;;13.60;8.20;;;-1.00;99.90;;;;;;5026177;28;20048;-74
2021/12/25 13:10:26;;;;;;;3.90;1.90;;;-1.40;99.90;;;;;;4998006;28;20041;-74
2021/12/25 13:13:12;;;;;;;11.80;7.95;;;-1.40;99.90;;;;;;5009798;28;20048;-73
2021/12/25 13:15:40;;;;;;;2.97;1.60;;;-1.40;99.90;;;;;;5025196;28;20076;-74
2021/12/25 13:18:06;;;;;;;4.63;1.40;;;-1.50;99.90;;;;;;5008406;28;20056;-75
2021/12/25 13:20:34;;;;;;;4.47;1.00;;;-1.50;99.90;;;;;;4970921;28;20278;-73
2021/12/25 13:23:02;;;;;;;2.83;1.35;;;-1.40;99.90;;;;;;5017369;28;20110;-74
2021/12/25 13:25:29;;;;;;;2.88;1.38;;;-1.30;99.90;;;;;;5007508;28;20064;-75
2021/12/25 13:27:57;;;;;;;1.85;1.08;;;-1.20;99.90;;;;;;5008554;28;20041;-74
2021/12/25 13:30:23;;;;;;;2.08;1.27;;;-0.40;99.90;;;;;;5023704;28;20045;-74
2021/12/25 13:32:49;;;;;;;1.50;1.00;;;-1.20;99.90;;;;;;5009167;28;20044;-73
2021/12/25 13:35:17;;;;;;;2.05;1.38;;;-1.40;99.90;;;;;;5007889;28;20059;-72
2021/12/25 13:37:43;;;;;;;3.08;1.35;;;-1.30;99.90;;;;;;5010739;28;20098;-73
2021/12/25 13:40:14;;;;;;;2.90;1.02;;;-1.40;99.90;;;;;;4997452;28;20066;-71
2021/12/25 13:42:40;;;;;;;4.03;0.70;;;-1.30;99.90;;;;;;4974732;28;20046;-75
2021/12/25 13:45:06;;;;;;;2.15;1.10;;;-1.30;99.90;;;;;;5018645;28;20053;-73
2021/12/25 13:47:34;;;;;;;3.85;1.33;;;-1.30;99.90;;;;;;5015539;28;20064;-73
2021/12/25 13:50:07;;;;;;;2.63;1.15;;;-1.00;99.90;;;;;;5008961;28;20049;-73
2021/12/25 13:52:37;;;;;;;2.35;1.00;;;-1.10;99.90;;;;;;5003952;28;20140;-74
2021/12/25 13:55:14;;;;;;;3.50;1.13;;;-1.00;99.90;;;;;;5020126;28;20045;-74
2021/12/25 13:57:50;;;;;;;2.00;1.20;;;-0.90;99.90;;;;;;5013277;28;20396;-72
2021/12/25 14:00:19;;;;;;;2.55;0.90;;;-1.30;99.90;;;;;;4987790;28;20045;-72
2021/12/25 14:02:49;;;;;;;4.00;1.23;;;-1.30;99.90;;;;;;4991006;28;20848;-73
2021/12/25 14:05:16;;;;;;;2.78;1.20;;;-1.40;99.90;;;;;;5006763;28;20045;-73
2021/12/25 14:07:43;;;;;;;4.05;1.10;;;-1.50;99.90;;;;;;5022225;28;20044;-74
2021/12/25 14:10:22;;;;;;;2.25;0.93;;;-1.30;99.90;;;;;;5026937;28;20076;-72
2021/12/25 14:12:51;;;;;;;2.85;1.10;;;-1.40;99.90;;;;;;5026497;28;20053;-72
2021/12/25 14:15:19;;;;;;;2.47;0.90;;;-1.50;99.90;;;;;;5007040;28;20139;-71
2021/12/25 14:17:46;;;;;;;1.67;0.95;;;-1.60;99.90;;;;;;5013893;28;20045;-72
2021/12/25 14:20:19;;;;;;;5.88;1.05;;;-1.70;99.90;;;;;;5019899;28;20040;-73
2021/12/25 14:22:47;;;;;;;4.75;2.00;;;-1.70;99.90;;;;;;5026144;28;20563;-72
2021/12/25 14:25:29;;;;;;;5.38;3.42;;;-1.70;99.90;;;;;;5010541;28;20056;-72